Time;durP1;ratioP1;P1;durP2;ratioP2;P2;SDS_P1;SDS_P2;PMS_P1;PMS_P2;Temp;Humidity;BMP_temperature;BMP_pressure;BME280_temperature;BME280_humidity;BME280_pressure;Samples;Min_cycle;Max_cycle;Signal;HPM_P1;HPM_P2
2023/01/14 00:02:19;;;;;;;12.05;4.15;;;;;;;;;;10215888;28;20046;-85
2023/01/14 00:07:24;;;;;;;9.05;2.63;;;;;;;;;;10175677;29;20463;-84
2023/01/14 00:12:28;;;;;;;9.25;3.10;;;;;;;;;;10204042;29;20054;-84
2023/01/14 00:17:31;;;;;;;9.65;2.38;;;;;;;;;;10206103;29;20423;-87
2023/01/14 00:22:36;;;;;;;11.40;2.92;;;;;;;;;;10203491;29;20039;-87
2023/01/14 00:27:39;;;;;;;13.48;3.20;;;;;;;;;;10168567;29;20441;-88
2023/01/14 00:32:43;;;;;;;12.27;3.25;;;;;;;;;;10204711;29;20039;-88
2023/01/14 00:37:49;;;;;;;9.52;2.58;;;;;;;;;;10212572;29;20053;-87
2023/01/14 00:42:53;;;;;;;8.63;2.92;;;;;;;;;;10209578;29;20043;-87
2023/01/14 00:47:56;;;;;;;18.02;4.45;;;;;;;;;;10220908;28;20055;-88
2023/01/14 00:53:01;;;;;;;17.52;4.28;;;;;;;;;;10209998;29;20058;-87
2023/01/14 00:58:04;;;;;;;9.52;2.50;;;;;;;;;;10204823;29;20048;-90
2023/01/14 01:03:08;;;;;;;6.55;2.10;;;;;;;;;;10203317;29;20053;-87
2023/01/14 01:08:15;;;;;;;6.70;2.08;;;;;;;;;;10216635;29;20039;-87
2023/01/14 01:13:19;;;;;;;4.50;1.90;;;;;;;;;;10174922;29;20442;-87
2023/01/14 01:18:22;;;;;;;7.43;2.10;;;;;;;;;;10180092;28;20046;-86
2023/01/14 01:23:27;;;;;;;7.38;1.65;;;;;;;;;;10203768;28;20047;-84
2023/01/14 01:28:31;;;;;;;10.02;2.97;;;;;;;;;;10202468;28;20047;-85
2023/01/14 01:33:35;;;;;;;13.43;2.80;;;;;;;;;;10204365;28;20518;-84
2023/01/14 01:38:40;;;;;;;3.83;1.48;;;;;;;;;;10200444;28;20717;-84
2023/01/14 01:44:06;;;;;;;4.20;1.20;;;;;;;;;;10221763;28;20050;-86
2023/01/14 01:49:11;;;;;;;4.77;1.57;;;;;;;;;;10210120;28;20102;-89
2023/01/14 01:54:17;;;;;;;5.25;1.60;;;;;;;;;;10226672;28;20048;-86
2023/01/14 01:59:24;;;;;;;5.95;2.13;;;;;;;;;;10213314;28;20047;-85
2023/01/14 02:04:27;;;;;;;5.40;1.60;;;;;;;;;;10219491;28;20053;-84
2023/01/14 02:09:32;;;;;;;7.22;2.03;;;;;;;;;;10207496;28;20036;-85
2023/01/14 02:14:47;;;;;;;4.30;1.27;;;;;;;;;;10220015;28;20047;-84
2023/01/14 02:20:09;;;;;;;8.10;1.98;;;;;;;;;;10211389;28;20054;-84
2023/01/14 02:25:45;;;;;;;5.90;1.50;;;;;;;;;;10196338;28;20047;-84
2023/01/14 02:30:58;;;;;;;4.40;1.73;;;;;;;;;;10223894;28;20039;-89
2023/01/14 02:36:07;;;;;;;7.18;2.15;;;;;;;;;;10215730;28;20055;-88
2023/01/14 02:41:18;;;;;;;9.95;2.03;;;;;;;;;;10213575;28;20059;-88
2023/01/14 02:46:32;;;;;;;8.82;2.35;;;;;;;;;;10218581;29;20515;-86
2023/01/14 02:51:40;;;;;;;13.93;3.00;;;;;;;;;;10215531;28;20106;-86
2023/01/14 02:56:45;;;;;;;12.77;2.95;;;;;;;;;;10210286;28;20519;-86
2023/01/14 03:02:12;;;;;;;11.97;2.50;;;;;;;;;;10205346;29;20040;-86
2023/01/14 03:07:22;;;;;;;8.18;2.10;;;;;;;;;;10197226;29;20295;-86
2023/01/14 03:12:34;;;;;;;13.02;2.97;;;;;;;;;;10220280;29;20047;-87
2023/01/14 03:17:44;;;;;;;11.27;2.45;;;;;;;;;;10217556;29;20046;-87
2023/01/14 03:22:50;;;;;;;14.05;2.67;;;;;;;;;;10217259;28;20082;-86
2023/01/14 03:27:59;;;;;;;9.45;2.58;;;;;;;;;;10220155;29;20074;-86
2023/01/14 03:33:08;;;;;;;4.17;1.63;;;;;;;;;;10216083;29;20284;-89
2023/01/14 03:38:15;;;;;;;7.78;1.38;;;;;;;;;;10183466;29;20132;-86
2023/01/14 03:43:24;;;;;;;4.38;1.25;;;;;;;;;;10176774;29;20048;-88
2023/01/14 03:48:30;;;;;;;3.33;1.23;;;;;;;;;;10169132;28;20054;-86
2023/01/14 03:53:40;;;;;;;3.90;1.20;;;;;;;;;;10211405;28;20035;-84
2023/01/14 03:58:51;;;;;;;7.00;1.80;;;;;;;;;;10206244;28;20043;-84
2023/01/14 04:03:56;;;;;;;3.60;1.00;;;;;;;;;;10206804;28;20065;-88
2023/01/14 04:09:00;;;;;;;2.80;0.70;;;;;;;;;;10211646;28;20043;-84
2023/01/14 04:19:25;;;;;;;6.35;1.63;;;;;;;;;;10206153;28;20050;-84
2023/01/14 04:24:29;;;;;;;2.20;0.75;;;;;;;;;;10212742;28;20069;-84
2023/01/14 04:29:32;;;;;;;3.00;0.90;;;;;;;;;;10197095;28;20039;-85
2023/01/14 04:34:37;;;;;;;1.55;0.70;;;;;;;;;;10209919;28;20743;-84
2023/01/14 04:39:41;;;;;;;2.47;1.00;;;;;;;;;;10211585;28;20059;-84
2023/01/14 04:44:46;;;;;;;4.72;1.30;;;;;;;;;;10214606;28;20411;-84
2023/01/14 04:49:51;;;;;;;1.90;0.77;;;;;;;;;;10192633;28;20044;-84
2023/01/14 04:54:55;;;;;;;4.05;1.20;;;;;;;;;;10185134;28;20050;-83
2023/01/14 04:59:58;;;;;;;2.63;0.68;;;;;;;;;;10203494;29;20043;-85
2023/01/14 05:05:04;;;;;;;1.90;0.70;;;;;;;;;;10207123;28;20381;-84
2023/01/14 05:10:08;;;;;;;3.53;0.93;;;;;;;;;;10205117;28;20054;-84
2023/01/14 05:15:11;;;;;;;5.07;0.98;;;;;;;;;;10206309;28;20582;-86
2023/01/14 05:20:17;;;;;;;4.95;1.30;;;;;;;;;;10224706;28;20523;-86
2023/01/14 05:25:20;;;;;;;20.20;8.45;;;;;;;;;;10207509;28;21275;-84
2023/01/14 05:30:23;;;;;;;12.57;4.40;;;;;;;;;;10210237;29;20057;-88
2023/01/14 05:35:28;;;;;;;8.93;2.33;;;;;;;;;;10215709;28;20047;-88
2023/01/14 05:40:32;;;;;;;5.07;1.75;;;;;;;;;;10198732;28;20486;-86
2023/01/14 05:45:47;;;;;;;4.35;1.27;;;;;;;;;;10200180;28;20035;-86
2023/01/14 05:50:52;;;;;;;4.18;1.35;;;;;;;;;;10211770;28;20127;-87
2023/01/14 05:55:57;;;;;;;6.05;1.77;;;;;;;;;;10222187;28;20514;-84
2023/01/14 06:06:30;;;;;;;6.40;1.20;;;;;;;;;;10219169;29;20406;-84
2023/01/14 06:11:34;;;;;;;3.28;1.08;;;;;;;;;;10215939;29;20558;-86
2023/01/14 06:16:39;;;;;;;5.82;1.33;;;;;;;;;;10211161;29;20039;-84
2023/01/14 06:21:44;;;;;;;3.10;1.15;;;;;;;;;;10214931;29;20130;-84
2023/01/14 06:26:47;;;;;;;3.65;1.05;;;;;;;;;;10207100;28;20411;-84
2023/01/14 06:31:51;;;;;;;3.47;1.08;;;;;;;;;;10203246;29;20483;-83
2023/01/14 06:36:56;;;;;;;6.13;1.40;;;;;;;;;;10218334;29;20727;-84
2023/01/14 06:41:59;;;;;;;3.90;1.27;;;;;;;;;;10217989;29;20079;-84
2023/01/14 06:47:03;;;;;;;5.82;1.20;;;;;;;;;;10217768;29;20133;-88
2023/01/14 06:52:08;;;;;;;4.32;1.50;;;;;;;;;;10211812;29;20043;-84
2023/01/14 06:57:11;;;;;;;3.70;1.27;;;;;;;;;;10212344;29;20047;-83
2023/01/14 07:02:15;;;;;;;5.80;1.60;;;;;;;;;;10207479;29;20054;-83
2023/01/14 07:07:20;;;;;;;7.85;1.77;;;;;;;;;;10220964;28;20050;-86
2023/01/14 07:12:23;;;;;;;5.30;1.92;;;;;;;;;;10207807;29;20039;-88
2023/01/14 07:17:26;;;;;;;5.10;2.08;;;;;;;;;;10209725;29;20090;-84
2023/01/14 07:22:32;;;;;;;4.82;1.70;;;;;;;;;;10203605;28;20043;-85
2023/01/14 07:27:36;;;;;;;3.67;1.73;;;;;;;;;;10200963;29;20050;-84
2023/01/14 07:32:39;;;;;;;4.80;1.58;;;;;;;;;;10171796;29;20044;-83
2023/01/14 07:37:44;;;;;;;3.67;1.40;;;;;;;;;;10167917;29;20039;-84
2023/01/14 07:42:47;;;;;;;6.70;1.95;;;;;;;;;;10210856;29;20035;-84
2023/01/14 07:47:50;;;;;;;4.05;1.48;;;;;;;;;;10207590;29;20608;-84
2023/01/14 07:52:56;;;;;;;7.47;1.80;;;;;;;;;;10206950;29;20039;-84
2023/01/14 07:58:00;;;;;;;5.32;1.90;;;;;;;;;;10200557;29;20047;-84
2023/01/14 08:03:04;;;;;;;5.10;1.60;;;;;;;;;;10203402;29;20053;-85
2023/01/14 08:08:08;;;;;;;5.05;1.70;;;;;;;;;;10209304;29;20563;-86
2023/01/14 08:13:13;;;;;;;4.65;1.60;;;;;;;;;;10217393;29;20362;-86
2023/01/14 08:18:16;;;;;;;5.35;1.35;;;;;;;;;;10205134;29;20582;-87
2023/01/14 08:23:21;;;;;;;4.25;1.88;;;;;;;;;;10207063;28;20126;-87
2023/01/14 08:28:25;;;;;;;9.48;2.03;;;;;;;;;;10213028;29;20058;-88
2023/01/14 08:33:28;;;;;;;5.72;2.10;;;;;;;;;;10210804;28;20392;-86
2023/01/14 08:38:33;;;;;;;7.85;1.80;;;;;;;;;;10224970;29;20110;-93
2023/01/14 08:43:37;;;;;;;4.15;1.73;;;;;;;;;;10197920;28;20546;-83
2023/01/14 08:48:41;;;;;;;6.20;1.52;;;;;;;;;;10164295;29;20555;-83
2023/01/14 08:53:45;;;;;;;4.72;1.67;;;;;;;;;;10182530;28;20035;-86
2023/01/14 08:58:49;;;;;;;3.83;1.15;;;;;;;;;;10237574;28;20045;-87
2023/01/14 09:03:57;;;;;;;5.07;1.50;;;;;;;;;;10243970;29;20073;-86
2023/01/14 09:19:49;;;;;;;4.18;1.70;;;;;;;;;;10221722;29;20114;-87
2023/01/14 09:24:54;;;;;;;4.18;1.23;;;;;;;;;;10213079;29;20043;-88
2023/01/14 09:29:58;;;;;;;2.85;1.20;;;;;;;;;;10227109;28;20040;-86
2023/01/14 09:35:02;;;;;;;2.63;1.20;;;;;;;;;;10209735;28;20458;-88
2023/01/14 09:40:11;;;;;;;3.97;1.20;;;;;;;;;;10220689;29;20134;-87
2023/01/14 09:45:16;;;;;;;2.53;0.95;;;;;;;;;;10239125;28;20102;-86
2023/01/14 09:50:23;;;;;;;1.87;1.03;;;;;;;;;;10221055;28;20437;-85
2023/01/14 09:55:34;;;;;;;1.40;0.98;;;;;;;;;;10187850;29;20484;-86
2023/01/14 10:00:46;;;;;;;2.83;1.17;;;;;;;;;;10211870;28;20051;-85
2023/01/14 10:05:55;;;;;;;1.95;1.13;;;;;;;;;;10227572;29;20066;-86
2023/01/14 10:11:00;;;;;;;2.67;1.30;;;;;;;;;;10235014;28;20110;-86
2023/01/14 10:16:08;;;;;;;3.88;1.30;;;;;;;;;;10218211;29;20088;-90
2023/01/14 10:21:18;;;;;;;4.53;1.50;;;;;;;;;;10222070;28;20075;-84
2023/01/14 10:26:26;;;;;;;2.92;1.08;;;;;;;;;;10194077;28;20078;-84
2023/01/14 10:31:31;;;;;;;3.70;1.52;;;;;;;;;;10208800;29;20555;-84
2023/01/14 10:36:37;;;;;;;4.38;1.60;;;;;;;;;;10216148;28;20051;-88
2023/01/14 10:41:51;;;;;;;1.83;1.10;;;;;;;;;;10232523;29;20130;-88
2023/01/14 10:46:57;;;;;;;2.75;0.77;;;;;;;;;;10246043;29;20043;-86
2023/01/14 10:52:02;;;;;;;3.50;0.90;;;;;;;;;;10233424;29;20114;-87
2023/01/14 10:57:15;;;;;;;3.15;1.15;;;;;;;;;;10246038;28;20051;-91
2023/01/14 11:02:23;;;;;;;2.50;1.10;;;;;;;;;;10233343;29;20047;-86
2023/01/14 11:07:30;;;;;;;4.70;1.30;;;;;;;;;;10239112;28;20054;-90
2023/01/14 11:12:34;;;;;;;1.90;0.82;;;;;;;;;;10228135;28;20044;-89
2023/01/14 11:17:38;;;;;;;5.70;1.40;;;;;;;;;;10221664;29;20362;-84
2023/01/14 11:28:33;;;;;;;2.28;0.80;;;;;;;;;;10189156;29;20602;-80
2023/01/14 11:33:48;;;;;;;3.28;1.17;;;;;;;;;;10214982;28;20047;-80
2023/01/14 11:38:59;;;;;;;3.85;1.23;;;;;;;;;;10246593;28;20055;-80
2023/01/14 11:44:05;;;;;;;;;;;;;;;;;;10236752;28;20177;-79
2023/01/14 11:49:17;;;;;;;2.25;0.82;;;;;;;;;;10231422;29;20401;-79
2023/01/14 11:54:21;;;;;;;1.33;0.75;;;;;;;;;;10225060;28;20048;-78
2023/01/14 11:59:29;;;;;;;2.33;0.70;;;;;;;;;;10224312;29;20082;-78
2023/01/14 12:04:39;;;;;;;2.63;0.80;;;;;;;;;;10228407;28;20055;-78
2023/01/14 12:09:49;;;;;;;2.83;0.82;;;;;;;;;;10228528;28;20127;-79
2023/01/14 12:20:27;;;;;;;1.80;0.88;;;;;;;;;;10218247;28;20102;-79
2023/01/14 12:25:36;;;;;;;0.80;0.70;;;;;;;;;;10229448;28;20074;-79
2023/01/14 12:30:49;;;;;;;2.05;1.02;;;;;;;;;;10225735;29;20679;-79
2023/01/14 12:35:58;;;;;;;1.52;0.80;;;;;;;;;;10243311;28;20039;-79
2023/01/14 12:46:27;;;;;;;1.10;0.70;;;;;;;;;;10222913;28;20102;-79
2023/01/14 12:51:33;;;;;;;2.58;0.90;;;;;;;;;;10228857;28;20566;-80
2023/01/14 12:56:42;;;;;;;2.17;1.27;;;;;;;;;;10220553;28;20057;-79
2023/01/14 13:01:53;;;;;;;1.65;0.85;;;;;;;;;;10226130;29;20628;-80
2023/01/14 13:07:00;;;;;;;2.03;0.70;;;;;;;;;;10231688;28;20134;-80
2023/01/14 13:12:05;;;;;;;2.88;0.90;;;;;;;;;;10227669;28;20047;-81
2023/01/14 13:17:19;;;;;;;1.30;0.88;;;;;;;;;;10223614;28;20052;-80
2023/01/14 13:22:53;;;;;;;1.20;0.60;;;;;;;;;;10241032;28;20047;-80
2023/01/14 13:27:57;;;;;;;0.82;0.50;;;;;;;;;;10169648;29;20486;-79
2023/01/14 13:33:23;;;;;;;1.20;0.50;;;;;;;;;;10225016;28;20122;-80
2023/01/14 13:38:29;;;;;;;1.25;0.70;;;;;;;;;;10185653;29;20069;-79
2023/01/14 13:43:33;;;;;;;1.52;0.88;;;;;;;;;;10196829;28;20570;-81
2023/01/14 13:48:41;;;;;;;1.33;0.73;;;;;;;;;;10241861;28;20142;-80
2023/01/14 13:53:54;;;;;;;1.00;0.77;;;;;;;;;;10247892;28;20039;-80
2023/01/14 13:59:00;;;;;;;0.75;0.50;;;;;;;;;;10227560;29;20071;-80
2023/01/14 14:04:10;;;;;;;0.80;0.40;;;;;;;;;;10229798;29;20552;-80
2023/01/14 14:09:19;;;;;;;1.05;0.60;;;;;;;;;;10226137;29;20055;-81
2023/01/14 14:14:28;;;;;;;1.08;0.55;;;;;;;;;;10232907;28;20051;-80
2023/01/14 14:19:44;;;;;;;2.15;0.80;;;;;;;;;;10226042;29;20502;-80
2023/01/14 14:24:59;;;;;;;1.73;0.57;;;;;;;;;;10239929;28;20048;-81
2023/01/14 14:30:12;;;;;;;1.75;0.60;;;;;;;;;;10223723;28;20047;-79
2023/01/14 14:35:24;;;;;;;1.65;0.77;;;;;;;;;;10229209;29;20463;-80
2023/01/14 14:40:30;;;;;;;1.52;0.40;;;;;;;;;;10224776;29;20051;-80
2023/01/14 14:45:35;;;;;;;0.75;0.50;;;;;;;;;;10236116;28;20384;-80
2023/01/14 14:50:40;;;;;;;1.08;0.80;;;;;;;;;;10215065;29;20043;-79
2023/01/14 14:55:50;;;;;;;0.40;0.40;;;;;;;;;;10228178;29;20039;-80
2023/01/14 15:00:58;;;;;;;1.90;0.73;;;;;;;;;;10228690;29;20047;-80
2023/01/14 15:06:10;;;;;;;1.35;0.60;;;;;;;;;;10247044;28;20118;-79
2023/01/14 15:11:19;;;;;;;1.58;0.50;;;;;;;;;;10230741;29;20627;-81
2023/01/14 15:16:29;;;;;;;4.95;2.47;;;;;;;;;;10243881;28;20114;-79
2023/01/14 15:21:37;;;;;;;5.05;2.50;;;;;;;;;;10246820;28;20047;-80
2023/01/14 15:26:42;;;;;;;7.05;4.00;;;;;;;;;;10223292;28;20123;-79
2023/01/14 15:31:46;;;;;;;2.95;2.05;;;;;;;;;;10238688;28;20102;-80
2023/01/14 15:37:05;;;;;;;1.45;0.65;;;;;;;;;;10242322;28;20055;-80
2023/01/14 15:42:09;;;;;;;1.17;0.57;;;;;;;;;;10238183;28;20423;-79
2023/01/14 15:47:17;;;;;;;0.57;0.57;;;;;;;;;;10242189;28;20749;-80
2023/01/14 15:52:32;;;;;;;1.02;0.80;;;;;;;;;;10244806;28;20051;-80
2023/01/14 15:57:41;;;;;;;2.10;0.70;;;;;;;;;;10239193;28;20059;-80
2023/01/14 16:02:45;;;;;;;1.33;0.60;;;;;;;;;;10236705;28;20450;-79
2023/01/14 16:07:51;;;;;;;0.50;0.40;;;;;;;;;;10237832;28;20086;-80
2023/01/14 16:12:55;;;;;;;1.20;0.65;;;;;;;;;;10227394;28;20053;-79
2023/01/14 16:18:07;;;;;;;2.22;0.90;;;;;;;;;;10240088;28;20043;-80
2023/01/14 16:23:13;;;;;;;8.45;4.30;;;;;;;;;;10243925;28;20435;-80
2023/01/14 16:28:18;;;;;;;3.33;1.40;;;;;;;;;;10207961;28;20130;-79
2023/01/14 16:33:21;;;;;;;1.70;0.98;;;;;;;;;;10236839;28;20050;-81
2023/01/14 16:38:26;;;;;;;2.00;0.85;;;;;;;;;;10240088;28;20447;-79
2023/01/14 16:43:32;;;;;;;0.93;0.75;;;;;;;;;;10223442;28;20055;-80
2023/01/14 16:48:38;;;;;;;0.52;0.50;;;;;;;;;;10223440;28;20415;-79
2023/01/14 16:53:43;;;;;;;4.68;2.60;;;;;;;;;;10240869;28;20241;-79
2023/01/14 16:58:50;;;;;;;2.08;1.00;;;;;;;;;;10238703;28;20126;-79
2023/01/14 17:03:55;;;;;;;1.00;0.75;;;;;;;;;;10228291;28;20047;-80
2023/01/14 17:09:00;;;;;;;2.30;0.63;;;;;;;;;;10239156;28;20054;-79
2023/01/14 17:14:05;;;;;;;1.80;0.80;;;;;;;;;;10233418;28;20059;-79
2023/01/14 17:19:09;;;;;;;2.05;0.60;;;;;;;;;;10217814;28;20098;-80
2023/01/14 17:24:15;;;;;;;0.95;0.60;;;;;;;;;;10238223;28;20508;-79
2023/01/14 17:29:20;;;;;;;2.05;0.90;;;;;;;;;;10234630;28;20523;-79
2023/01/14 17:34:24;;;;;;;3.13;1.63;;;;;;;;;;10235879;28;20337;-79
2023/01/14 17:39:31;;;;;;;3.47;1.92;;;;;;;;;;10223703;28;20434;-80
2023/01/14 17:44:36;;;;;;;3.78;2.28;;;;;;;;;;10250671;28;20070;-79
2023/01/14 17:49:42;;;;;;;1.40;0.88;;;;;;;;;;10239669;28;20121;-79
2023/01/14 17:54:47;;;;;;;0.40;0.40;;;;;;;;;;10237346;28;20257;-80
2023/01/14 17:59:52;;;;;;;0.40;0.30;;;;;;;;;;10239499;28;20114;-79
2023/01/14 18:04:56;;;;;;;0.60;0.35;;;;;;;;;;10233813;28;20546;-79
2023/01/14 18:10:01;;;;;;;0.88;0.50;;;;;;;;;;10243214;28;20423;-80
2023/01/14 18:15:05;;;;;;;0.73;0.40;;;;;;;;;;10235717;28;20535;-79
2023/01/14 18:20:12;;;;;;;0.87;0.77;;;;;;;;;;10234597;28;20526;-79
2023/01/14 18:25:17;;;;;;;1.15;0.85;;;;;;;;;;10232134;28;20061;-79
2023/01/14 18:30:21;;;;;;;1.67;1.00;;;;;;;;;;10246812;28;20043;-81
2023/01/14 18:35:35;;;;;;;1.27;0.83;;;;;;;;;;10234539;28;20074;-81
2023/01/14 18:41:05;;;;;;;0.50;0.50;;;;;;;;;;10247806;28;20219;-82
2023/01/14 18:46:16;;;;;;;0.70;0.70;;;;;;;;;;10224986;28;20054;-81
2023/01/14 18:51:25;;;;;;;1.00;0.75;;;;;;;;;;10247259;28;20485;-81
2023/01/14 18:56:32;;;;;;;0.98;0.85;;;;;;;;;;10232145;29;20059;-81
2023/01/14 19:01:47;;;;;;;1.25;0.40;;;;;;;;;;10234710;28;20039;-81
2023/01/14 19:06:53;;;;;;;;;;;;;;;;;;10231661;28;20564;-80
2023/01/14 19:12:03;;;;;;;0.60;0.53;;;;;;;;;;10227021;28;19926;-80
2023/01/14 19:17:06;;;;;;;0.68;0.50;;;;;;;;;;10231425;28;20505;-80
2023/01/14 19:22:10;;;;;;;0.40;0.40;;;;;;;;;;10246892;28;20142;-79
2023/01/14 19:27:16;;;;;;;2.22;1.08;;;;;;;;;;10231654;28;20562;-80
2023/01/14 19:32:27;;;;;;;4.35;2.00;;;;;;;;;;10189552;29;20463;-80
2023/01/14 19:37:34;;;;;;;2.78;1.60;;;;;;;;;;10227063;28;20043;-81
2023/01/14 19:42:44;;;;;;;1.88;1.17;;;;;;;;;;10232389;28;20043;-80
2023/01/14 19:47:52;;;;;;;0.95;0.70;;;;;;;;;;10231060;28;20053;-80
2023/01/14 19:52:58;;;;;;;0.60;0.50;;;;;;;;;;10231187;28;20058;-80
2023/01/14 19:58:07;;;;;;;0.47;0.40;;;;;;;;;;10230456;28;20114;-81
2023/01/14 20:03:23;;;;;;;0.55;0.32;;;;;;;;;;10228024;29;20046;-82
2023/01/14 20:08:27;;;;;;;0.60;0.30;;;;;;;;;;10227014;29;20561;-80
2023/01/14 20:13:39;;;;;;;0.20;0.20;;;;;;;;;;10228630;29;20035;-81
2023/01/14 20:18:48;;;;;;;0.22;0.22;;;;;;;;;;10220569;29;20094;-81
2023/01/14 20:29:32;;;;;;;0.30;0.30;;;;;;;;;;10214932;29;20054;-82
2023/01/14 20:35:14;;;;;;;0.28;0.28;;;;;;;;;;10219405;28;20106;-81
2023/01/14 20:40:44;;;;;;;0.35;0.35;;;;;;;;;;10174369;28;20458;-81
2023/01/14 20:51:49;;;;;;;0.55;0.40;;;;;;;;;;10207325;29;20419;-80
2023/01/14 20:57:21;;;;;;;0.80;0.45;;;;;;;;;;10229447;28;20636;-80
2023/01/14 21:09:02;;;;;;;0.57;0.57;;;;;;;;;;10100394;28;20050;-80
2023/01/14 21:31:54;;;;;;;0.40;0.40;;;;;;;;;;10037720;29;20045;-81
2023/01/14 21:44:23;;;;;;;1.63;0.50;;;;;;;;;;10107412;28;20515;-83
2023/01/14 21:49:37;;;;;;;1.02;0.93;;;;;;;;;;10210626;28;20135;-81
2023/01/14 21:54:43;;;;;;;0.75;0.70;;;;;;;;;;10218490;28;20039;-81
2023/01/14 21:59:49;;;;;;;0.50;0.40;;;;;;;;;;10268206;23;20170;-82
2023/01/14 22:04:54;;;;;;;0.70;0.70;;;;;;;;;;10266668;28;20042;-81
2023/01/14 22:09:58;;;;;;;0.70;0.70;;;;;;;;;;10247693;28;20047;-80
2023/01/14 22:15:05;;;;;;;0.70;0.70;;;;;;;;;;10270601;28;20574;-85
2023/01/14 22:20:11;;;;;;;0.80;0.60;;;;;;;;;;10283463;28;20059;-83
2023/01/14 22:25:15;;;;;;;0.55;0.50;;;;;;;;;;10268497;28;20051;-83
2023/01/14 22:30:18;;;;;;;0.32;0.32;;;;;;;;;;10287881;28;20047;-82
2023/01/14 22:35:23;;;;;;;0.60;0.60;;;;;;;;;;10274465;28;20043;-84
2023/01/14 22:40:27;;;;;;;0.47;0.47;;;;;;;;;;10276136;28;20054;-84
2023/01/14 22:45:32;;;;;;;0.30;0.30;;;;;;;;;;10267071;28;20703;-82
2023/01/14 22:50:38;;;;;;;0.30;0.30;;;;;;;;;;10265297;28;20057;-81
2023/01/14 22:55:42;;;;;;;0.22;0.20;;;;;;;;;;10271190;28;20035;-80
2023/01/14 23:00:45;;;;;;;2.15;0.28;;;;;;;;;;10261091;28;20051;-82
2023/01/14 23:05:51;;;;;;;0.20;0.20;;;;;;;;;;10271503;28;20062;-84
2023/01/14 23:11:12;;;;;;;0.30;0.30;;;;;;;;;;10264426;28;20043;-82
2023/01/14 23:27:02;;;;;;;2.10;1.05;;;;;;;;;;10258688;28;20058;-82
2023/01/14 23:32:06;;;;;;;7.82;4.05;;;;;;;;;;10271645;28;20101;-81
2023/01/14 23:37:11;;;;;;;9.82;4.50;;;;;;;;;;10250489;28;20060;-79
2023/01/14 23:42:15;;;;;;;0.88;0.80;;;;;;;;;;10256763;28;20077;-80
2023/01/14 23:47:19;;;;;;;3.83;1.48;;;;;;;;;;10269934;28;20059;-81
2023/01/14 23:52:25;;;;;;;0.95;0.82;;;;;;;;;;10255822;28;20043;-82
2023/01/14 23:57:29;;;;;;;0.40;0.40;;;;;;;;;;10260866;28;20569;-84
